createdAt,value
2019-02-21T00:02:15.052Z,82.70
2019-02-21T00:05:18.678Z,82.74
2019-02-21T00:08:21.383Z,83.12
2019-02-21T00:11:23.921Z,83.24
2019-02-21T00:14:26.590Z,83.28
2019-02-21T00:17:29.194Z,82.96
2019-02-21T00:20:31.983Z,83.60
2019-02-21T00:23:34.591Z,83.74
2019-02-21T00:26:37.203Z,83.91
2019-02-21T00:29:39.762Z,84.10
2019-02-21T00:32:42.367Z,84.18
2019-02-21T00:35:44.983Z,84.03
2019-02-21T00:38:47.542Z,84.05
2019-02-21T00:41:50.243Z,83.63
2019-02-21T00:44:52.853Z,83.75
2019-02-21T00:47:55.534Z,84.13
2019-02-21T00:50:58.250Z,84.60
2019-02-21T00:54:00.982Z,84.62
2019-02-21T00:57:03.532Z,85.31
2019-02-21T01:00:07.741Z,85.14
2019-02-21T01:03:10.330Z,84.79
2019-02-21T01:06:12.989Z,84.85
2019-02-21T01:09:15.592Z,84.71
2019-02-21T01:12:18.241Z,84.67
2019-02-21T01:15:20.941Z,84.84
2019-02-21T01:18:23.586Z,85.23
2019-02-21T01:21:26.134Z,84.85
2019-02-21T01:24:28.944Z,85.07
2019-02-21T01:27:31.672Z,85.42
2019-02-21T01:30:34.547Z,84.73
2019-02-21T01:33:37.180Z,84.95
2019-02-21T01:36:39.856Z,85.12
2019-02-21T01:39:42.554Z,84.78
2019-02-21T01:42:45.137Z,85.48
2019-02-21T01:45:47.839Z,84.77
2019-02-21T01:48:51.542Z,84.69
2019-02-21T01:51:54.198Z,84.95
2019-02-21T01:54:56.741Z,84.64
2019-02-21T01:57:59.483Z,84.36
2019-02-21T02:01:08.604Z,83.81
2019-02-21T02:04:06.475Z,83.95
2019-02-21T02:07:09.106Z,84.08
2019-02-21T02:10:11.741Z,83.87
2019-02-21T02:13:24.127Z,84.75
2019-02-21T02:16:19.786Z,84.79
2019-02-21T02:19:22.363Z,85.35
2019-02-21T02:22:24.963Z,85.24
2019-02-21T02:25:27.630Z,85.66
2019-02-21T02:28:30.221Z,85.18
2019-02-21T02:31:32.802Z,85.55
2019-02-21T02:34:35.503Z,85.26
2019-02-21T02:37:38.151Z,84.92
2019-02-21T02:40:40.756Z,85.05
2019-02-21T02:43:43.324Z,85.37
2019-02-21T02:46:45.968Z,85.95
2019-02-21T02:49:48.515Z,86.27
2019-02-21T02:52:51.149Z,86.68
2019-02-21T02:55:53.779Z,86.62
2019-02-21T02:58:56.468Z,87.11
2019-02-21T03:01:59.075Z,87.11
2019-02-21T03:05:01.721Z,87.43
2019-02-21T03:08:04.446Z,87.93
2019-02-21T03:11:07.174Z,88.23
2019-02-21T03:14:09.857Z,87.94
2019-02-21T03:17:12.891Z,87.52
2019-02-21T03:20:15.535Z,88.10
2019-02-21T03:23:18.146Z,88.04
2019-02-21T03:26:20.901Z,88.24
2019-02-21T03:29:23.509Z,88.59
2019-02-21T03:32:26.197Z,88.93
2019-02-21T03:35:28.896Z,88.56
2019-02-21T03:38:35.056Z,88.68
2019-02-21T03:41:38.916Z,89.06
2019-02-21T03:44:41.547Z,89.82
2019-02-21T03:47:44.251Z,89.86
2019-02-21T03:50:46.994Z,89.84
2019-02-21T03:53:49.661Z,90.70
2019-02-21T03:56:52.400Z,90.11
2019-02-21T03:59:55.082Z,90.73
2019-02-21T04:02:57.709Z,91.39
2019-02-21T04:06:00.313Z,91.85
2019-02-21T04:09:04.875Z,93.04
2019-02-21T04:12:08.575Z,92.93
2019-02-21T04:15:12.405Z,93.63
2019-02-21T04:18:15.139Z,94.08
2019-02-21T04:21:18.617Z,93.75
2019-02-21T04:24:21.195Z,94.45
2019-02-21T04:27:23.767Z,94.41
2019-02-21T04:30:26.422Z,95.00
2019-02-21T04:33:29.045Z,94.89
2019-02-21T04:36:32.518Z,95.35
2019-02-21T04:39:35.066Z,95.40
2019-02-21T04:42:37.730Z,94.41
2019-02-21T04:45:40.601Z,94.73
2019-02-21T04:48:43.237Z,93.57
2019-02-21T04:51:45.956Z,93.26
2019-02-21T04:54:48.592Z,93.45
2019-02-21T04:57:51.244Z,93.00
2019-02-21T05:00:53.752Z,93.80
2019-02-21T05:03:56.362Z,93.81
2019-02-21T05:06:59.159Z,93.72
2019-02-21T05:10:03.265Z,93.53
2019-02-21T05:13:05.937Z,93.93
2019-02-21T05:16:08.466Z,94.04
2019-02-21T05:19:11.042Z,93.93
2019-02-21T05:22:13.783Z,93.96
2019-02-21T05:25:16.491Z,94.09
2019-02-21T05:28:41.161Z,93.59
2019-02-21T05:31:53.111Z,94.35
2019-02-21T05:35:14.199Z,94.67
2019-02-21T05:38:45.507Z,95.48
2019-02-21T05:42:06.952Z,96.60
2019-02-21T05:45:14.577Z,96.41
2019-02-21T05:48:28.900Z,97.19
2019-02-21T05:51:45.728Z,96.91
2019-02-21T05:55:07.867Z,96.30
2019-02-21T05:58:21.161Z,96.70
2019-02-21T06:01:55.375Z,96.65
2019-02-21T06:05:20.510Z,96.23
2019-02-21T06:08:49.039Z,96.46
2019-02-21T06:12:17.043Z,96.18
2019-02-21T06:15:47.455Z,96.06
2019-02-21T06:19:08.336Z,95.70
2019-02-21T06:22:22.142Z,96.11
2019-02-21T06:25:50.985Z,95.63
2019-02-21T06:29:00.249Z,95.59
2019-02-21T06:32:13.582Z,95.78
2019-02-21T06:35:07.565Z,95.75
2019-02-21T06:38:10.211Z,95.95
2019-02-21T06:41:12.870Z,95.51
2019-02-21T06:44:15.552Z,96.22
2019-02-21T06:47:18.250Z,97.04
2019-02-21T06:50:32.930Z,96.89
2019-02-21T06:53:39.577Z,96.73
2019-02-21T06:56:42.119Z,96.38
2019-02-21T06:59:48.377Z,96.83
2019-02-21T07:02:50.926Z,96.69
2019-02-21T07:05:54.447Z,96.72
2019-02-21T07:08:57.106Z,96.80
2019-02-21T07:11:59.760Z,96.88
2019-02-21T07:15:02.337Z,97.13
2019-02-21T07:18:05.085Z,96.77
2019-02-21T07:21:07.619Z,95.71
2019-02-21T07:24:10.272Z,95.08
2019-02-21T07:27:12.860Z,94.63
2019-02-21T07:30:20.033Z,94.95
2019-02-21T07:33:28.501Z,94.95
2019-02-21T07:36:24.678Z,94.61
2019-02-21T07:39:35.560Z,93.98
2019-02-21T07:42:31.852Z,94.52
2019-02-21T07:45:36.683Z,94.24
2019-02-21T07:48:39.415Z,94.78
2019-02-21T07:51:43.118Z,95.89
2019-02-21T07:54:49.500Z,95.57
2019-02-21T07:57:53.588Z,94.92
2019-02-21T08:00:57.156Z,94.03
2019-02-21T08:03:59.835Z,92.05
2019-02-21T08:07:02.666Z,90.72
2019-02-21T08:10:05.855Z,91.42
2019-02-21T08:13:08.586Z,90.63
2019-02-21T08:16:12.587Z,91.33
2019-02-21T08:19:15.387Z,91.16
2019-02-21T08:22:18.292Z,90.61
2019-02-21T08:25:20.915Z,90.68
2019-02-21T08:28:23.670Z,90.45
2019-02-21T08:31:26.440Z,90.75
2019-02-21T08:34:36.484Z,88.81
2019-02-21T08:37:39.003Z,89.15
2019-02-21T08:40:41.696Z,89.25
2019-02-21T08:43:44.409Z,88.94
2019-02-21T08:46:47.068Z,88.77
2019-02-21T08:49:50.899Z,87.35
2019-02-21T08:52:53.449Z,87.17
2019-02-21T08:55:58.353Z,86.19
2019-02-21T08:59:01.074Z,86.37
2019-02-21T09:02:05.092Z,84.95
2019-02-21T09:05:09.463Z,85.18
2019-02-21T09:08:12.335Z,84.16
2019-02-21T09:11:15.049Z,84.02
2019-02-21T09:14:17.714Z,83.30
2019-02-21T09:17:20.244Z,84.90
2019-02-21T09:20:23.020Z,85.31
2019-02-21T09:23:25.700Z,85.25
2019-02-21T09:26:28.274Z,85.30
2019-02-21T09:29:30.793Z,84.20
2019-02-21T09:32:33.446Z,82.73
2019-02-21T09:35:37.325Z,81.17
2019-02-21T09:38:40.043Z,80.65
2019-02-21T09:41:42.827Z,79.89
2019-02-21T09:44:49.673Z,82.86
2019-02-21T09:47:51.769Z,82.30
2019-02-21T09:50:56.226Z,80.55
2019-02-21T09:53:58.946Z,79.85
2019-02-21T09:57:12.414Z,80.02
2019-02-21T10:00:10.015Z,80.64
2019-02-21T10:03:12.555Z,79.81
2019-02-21T10:06:15.285Z,80.00
2019-02-21T10:09:17.826Z,80.10
2019-02-21T10:12:20.506Z,80.39
2019-02-21T10:15:23.164Z,82.02
2019-02-21T10:18:25.710Z,82.61
2019-02-21T10:21:28.340Z,81.69
2019-02-21T10:24:30.966Z,80.25
2019-02-21T10:27:33.592Z,80.09
2019-02-21T10:30:36.450Z,81.12
2019-02-21T10:33:46.560Z,84.03
2019-02-21T10:36:43.844Z,86.85
2019-02-21T10:39:47.896Z,87.81
2019-02-21T10:42:50.691Z,89.46
2019-02-21T10:45:53.277Z,90.16
2019-02-21T10:48:55.889Z,88.66
2019-02-21T10:51:58.480Z,89.34
2019-02-21T10:55:01.071Z,88.10
2019-02-21T10:58:06.236Z,86.86
2019-02-21T11:01:08.885Z,87.14
2019-02-21T11:04:11.490Z,87.98
2019-02-21T11:07:15.101Z,88.33
2019-02-21T11:10:20.769Z,87.71
2019-02-21T11:13:23.334Z,87.49
2019-02-21T11:16:26.036Z,85.79
2019-02-21T11:19:29.985Z,87.56
2019-02-21T11:22:32.621Z,86.98
2019-02-21T11:25:35.281Z,86.76
2019-02-21T11:28:37.914Z,85.36
2019-02-21T11:31:40.645Z,84.42
2019-02-21T11:34:43.344Z,83.58
2019-02-21T11:37:47.375Z,84.37
2019-02-21T11:40:50.389Z,82.30
2019-02-21T11:43:52.994Z,81.48
2019-02-21T11:46:55.550Z,81.57
2019-02-21T11:49:58.239Z,81.50
2019-02-21T11:53:00.840Z,80.86
2019-02-21T11:56:03.529Z,80.18
2019-02-21T11:59:06.164Z,79.91
2019-02-21T12:02:08.820Z,79.99
2019-02-21T12:05:17.451Z,79.19
2019-02-21T12:08:16.071Z,77.44
2019-02-21T12:11:18.974Z,77.90
2019-02-21T12:14:21.694Z,76.39
2019-02-21T12:17:24.280Z,75.94
2019-02-21T12:20:26.899Z,77.70
2019-02-21T12:23:29.696Z,77.18
2019-02-21T12:26:32.479Z,75.79
2019-02-21T12:29:35.160Z,76.69
2019-02-21T12:32:37.761Z,78.03
2019-02-21T12:35:40.552Z,76.95
2019-02-21T12:38:46.491Z,75.17
2019-02-21T12:41:49.328Z,76.76
2019-02-21T12:44:53.653Z,76.45
2019-02-21T12:47:56.284Z,75.13
2019-02-21T12:50:58.964Z,74.55
2019-02-21T12:54:01.688Z,74.47
2019-02-21T12:57:04.329Z,76.50
2019-02-21T13:00:10.260Z,76.52
2019-02-21T13:03:12.873Z,76.34
2019-02-21T13:06:15.456Z,76.67
2019-02-21T13:09:18.123Z,77.69
2019-02-21T13:12:20.896Z,76.44
2019-02-21T13:15:23.479Z,79.61
2019-02-21T13:18:26.258Z,79.56
2019-02-21T13:21:29.890Z,79.15
2019-02-21T13:24:32.518Z,77.27
2019-02-21T13:27:35.095Z,76.84
2019-02-21T13:30:39.234Z,76.97
2019-02-21T13:33:41.975Z,77.00
2019-02-21T13:36:44.639Z,76.14
2019-02-21T13:39:47.354Z,74.27
2019-02-21T13:42:50.979Z,75.06
2019-02-21T13:45:53.635Z,74.43
2019-02-21T13:48:56.414Z,74.44
2019-02-21T13:51:58.964Z,75.71
2019-02-21T13:55:01.715Z,76.66
2019-02-21T13:58:04.435Z,76.49
2019-02-21T14:01:07.113Z,76.45
2019-02-21T14:04:09.813Z,76.61
2019-02-21T14:07:12.393Z,77.11
2019-02-21T14:10:15.071Z,77.83
2019-02-21T14:13:17.956Z,78.10
2019-02-21T14:16:20.565Z,77.07
2019-02-21T14:19:23.133Z,77.68
2019-02-21T14:22:27.449Z,78.48
2019-02-21T14:25:40.308Z,78.42
2019-02-21T14:28:37.290Z,78.89
2019-02-21T14:31:39.206Z,79.35
2019-02-21T14:34:41.905Z,79.52
2019-02-21T14:37:44.596Z,81.18
2019-02-21T14:40:47.159Z,85.25
2019-02-21T14:43:49.853Z,86.28
2019-02-21T14:46:52.564Z,88.72
2019-02-21T14:49:55.257Z,88.55
2019-02-21T14:52:57.914Z,89.39
2019-02-21T14:56:00.460Z,89.72
2019-02-21T14:59:03.090Z,91.90
2019-02-21T15:02:06.219Z,91.61
2019-02-21T15:05:10.131Z,93.09
2019-02-21T15:08:18.163Z,92.44
2019-02-21T15:11:20.948Z,93.33
2019-02-21T15:14:24.544Z,93.60
2019-02-21T15:17:27.118Z,95.22
2019-02-21T15:20:36.698Z,95.61
2019-02-21T15:23:36.894Z,96.94
2019-02-21T15:26:38.684Z,99.63
2019-02-21T15:29:42.234Z,99.63
2019-02-21T15:32:45.173Z,100.91
2019-02-21T15:35:48.080Z,102.77
2019-02-21T15:38:50.654Z,103.45
2019-02-21T15:41:53.268Z,103.57
2019-02-21T15:44:55.994Z,103.68
2019-02-21T15:47:58.746Z,103.63
2019-02-21T15:51:01.470Z,103.61
2019-02-21T15:54:04.223Z,103.88
2019-02-21T15:57:06.870Z,104.29
2019-02-21T16:00:11.386Z,103.90
2019-02-21T16:03:14.057Z,104.00
2019-02-21T16:06:16.760Z,104.03
2019-02-21T16:09:19.422Z,103.97
2019-02-21T16:12:22.464Z,102.87
2019-02-21T16:15:25.328Z,101.94
2019-02-21T16:18:28.044Z,101.42
2019-02-21T16:21:30.740Z,102.02
2019-02-21T16:24:33.415Z,101.57
2019-02-21T16:27:36.052Z,100.88
2019-02-21T16:30:38.738Z,99.56
2019-02-21T16:33:41.572Z,99.05
2019-02-21T16:36:44.164Z,98.83
2019-02-21T16:39:46.758Z,98.66
2019-02-21T16:42:49.348Z,97.66
2019-02-21T16:45:53.857Z,96.79
2019-02-21T16:48:56.493Z,96.81
2019-02-21T16:51:59.218Z,95.03
2019-02-21T16:55:03.015Z,94.87
2019-02-21T16:58:05.677Z,93.67
2019-02-21T17:01:08.515Z,93.71
2019-02-21T17:04:11.053Z,92.77
2019-02-21T17:07:19.819Z,92.92
2019-02-21T17:10:18.159Z,92.74
2019-02-21T17:13:20.826Z,92.60
2019-02-21T17:16:23.570Z,91.60
2019-02-21T17:19:26.179Z,92.12
2019-02-21T17:22:28.823Z,92.14
2019-02-21T17:25:31.537Z,91.77
2019-02-21T17:28:34.153Z,91.61
2019-02-21T17:31:37.356Z,91.46
2019-02-21T17:34:40.187Z,91.52
2019-02-21T17:37:42.875Z,91.88
2019-02-21T17:40:45.630Z,92.13
2019-02-21T17:43:48.320Z,91.58
2019-02-21T17:46:50.983Z,92.25
2019-02-21T17:49:53.565Z,92.98
2019-02-21T17:52:56.245Z,92.91
2019-02-21T17:55:58.920Z,93.83
2019-02-21T17:59:01.525Z,94.48
2019-02-21T18:02:04.255Z,95.11
2019-02-21T18:05:07.388Z,95.67
2019-02-21T18:08:10.045Z,95.76
2019-02-21T18:11:12.854Z,96.06
2019-02-21T18:14:15.446Z,97.03
2019-02-21T18:17:18.238Z,98.52
2019-02-21T18:20:20.888Z,99.77
2019-02-21T18:23:23.624Z,100.70
2019-02-21T18:26:26.233Z,101.24
2019-02-21T18:29:28.856Z,101.29
2019-02-21T18:32:33.325Z,101.66
2019-02-21T18:35:35.987Z,102.06
2019-02-21T18:38:38.682Z,102.04
2019-02-21T18:41:41.623Z,102.11
2019-02-21T18:44:44.604Z,102.86
2019-02-21T18:47:47.453Z,103.05
2019-02-21T18:50:50.353Z,103.29
2019-02-21T18:53:53.179Z,103.78
2019-02-21T18:56:57.143Z,103.29
2019-02-21T19:00:00.234Z,103.79
2019-02-21T19:03:04.305Z,103.89
2019-02-21T19:06:08.234Z,104.27
2019-02-21T19:09:11.036Z,104.39
2019-02-21T19:12:13.868Z,104.22
2019-02-21T19:15:17.475Z,104.25
2019-02-21T19:18:20.078Z,104.04
2019-02-21T19:21:22.766Z,104.20
2019-02-21T19:24:25.431Z,104.72
2019-02-21T19:27:36.865Z,105.16
2019-02-21T19:30:39.004Z,104.94
2019-02-21T19:33:42.123Z,105.30
2019-02-21T19:36:44.952Z,105.35
2019-02-21T19:39:47.598Z,105.57
2019-02-21T19:42:50.617Z,106.02
2019-02-21T19:45:53.361Z,106.26
2019-02-21T19:48:56.208Z,106.58
2019-02-21T19:51:58.849Z,106.79
2019-02-21T19:55:01.479Z,107.06
2019-02-21T19:58:06.007Z,107.25
2019-02-21T20:01:08.812Z,107.36
2019-02-21T20:04:11.407Z,107.19
2019-02-21T20:07:14.081Z,107.00
2019-02-21T20:10:16.988Z,106.32
2019-02-21T20:13:19.749Z,106.43
2019-02-21T20:16:22.713Z,106.70
2019-02-21T20:19:25.328Z,106.69
2019-02-21T20:22:28.185Z,106.74
2019-02-21T20:25:30.873Z,106.94
2019-02-21T20:28:33.463Z,107.06
2019-02-21T20:31:36.218Z,107.45
2019-02-21T20:34:38.873Z,107.87
2019-02-21T20:37:43.579Z,107.83
2019-02-21T20:40:46.362Z,107.57
2019-02-21T20:43:48.996Z,107.67
2019-02-21T20:46:51.658Z,107.83
2019-02-21T20:49:54.485Z,107.79
2019-02-21T20:52:57.218Z,107.60
2019-02-21T20:56:01.853Z,107.13
2019-02-21T20:59:04.838Z,106.96
2019-02-21T21:02:08.067Z,106.82
2019-02-21T21:05:11.036Z,106.87
2019-02-21T21:08:13.601Z,106.52
2019-02-21T21:11:16.301Z,106.45
2019-02-21T21:14:18.989Z,106.78
2019-02-21T21:17:24.014Z,106.79
2019-02-21T21:20:27.669Z,106.32
2019-02-21T21:23:32.813Z,106.40
2019-02-21T21:26:35.503Z,106.02
2019-02-21T21:29:38.153Z,105.89
2019-02-21T21:32:40.823Z,106.34
2019-02-21T21:35:43.418Z,106.64
2019-02-21T21:38:53.649Z,106.32
2019-02-21T21:41:50.991Z,106.45
2019-02-21T21:44:53.810Z,106.77
2019-02-21T21:47:57.403Z,107.05
2019-02-21T21:51:00.290Z,106.99
2019-02-21T21:54:03.846Z,106.78
2019-02-21T21:57:06.511Z,106.60
2019-02-21T22:00:13.106Z,106.36
2019-02-21T22:03:17.377Z,106.38
2019-02-21T22:06:20.011Z,106.56
2019-02-21T22:09:22.863Z,106.32
2019-02-21T22:12:25.617Z,106.81
2019-02-21T22:15:28.336Z,107.03
2019-02-21T22:18:31.148Z,107.29
2019-02-21T22:21:35.952Z,107.37
2019-02-21T22:24:38.761Z,107.77
2019-02-21T22:27:41.547Z,107.51
2019-02-21T22:30:44.157Z,107.39
2019-02-21T22:33:46.916Z,107.74
2019-02-21T22:36:49.618Z,107.61
2019-02-21T22:39:52.306Z,107.79
2019-02-21T22:42:55.034Z,107.83
2019-02-21T22:45:57.642Z,107.93
2019-02-21T22:49:00.455Z,107.90
2019-02-21T22:52:03.013Z,108.26
2019-02-21T22:55:09.725Z,108.61
2019-02-21T22:58:10.411Z,108.98
2019-02-21T23:01:28.594Z,109.60
2019-02-21T23:05:20.960Z,109.79
2019-02-21T23:08:52.430Z,110.17
2019-02-21T23:11:55.192Z,110.60
2019-02-21T23:14:57.821Z,110.83
2019-02-21T23:18:00.397Z,110.98
2019-02-21T23:21:04.178Z,111.25
2019-02-21T23:24:06.715Z,111.46
2019-02-21T23:27:09.520Z,111.56
2019-02-21T23:30:12.847Z,111.72
2019-02-21T23:33:15.622Z,111.96
2019-02-21T23:36:18.206Z,111.81
2019-02-21T23:39:20.827Z,112.02
2019-02-21T23:42:23.394Z,111.87
2019-02-21T23:45:25.992Z,112.02
2019-02-21T23:48:28.632Z,112.12
2019-02-21T23:51:31.422Z,112.14
2019-02-21T23:54:33.956Z,112.18
2019-02-21T23:57:36.673Z,112.42
